Latest Weather Observations for Wadeye (Port Keats)

IDD60801

Issued at 1:01 pm CST Thursday 2 July 2015 (issued every 30 minutes, with the page automatically refreshed every 10 minutes)

About weather observations | Map of weather stations | Latest weather observations for NT | Other Formats
Station Details ID: 014948 Name: PORT KEATS AIRPORT Lat: -14.25 Lon: 129.53 Height: 28.0 m
Data from the previous 72 hours. | See also: Recent months at Wadeye (Port Keats)
Date/Time
CST
Temp
°C
App
Temp
°C
Dew
Point
Rel
Hum
%
Delta-T
°C
Wind Press
QNH
hPa
Press
MSL
hPa
Rain
since 9 am
mm
Dir
 
Spd
km/h
Gust
km/h
Spd
kts
Gust
kts
02/01:00pm 31.3 28.4 14.0 35 10.5 E 22 32 12 17 1016.0 1015.9 0.0
02/12:30pm 31.0 28.5 14.2 36 10.2 E 20 35 11 19 1016.6 1016.5 0.0
02/12:00pm 30.5 28.6 14.2 37 9.9 ESE 17 28 9 15 1017.2 1017.1 0.0
02/11:30am 29.7 26.9 14.3 39 9.3 ESE 22 30 12 16 1017.5 1017.4 0.0
02/11:00am 29.3 26.9 13.9 39 9.2 ESE 19 30 10 16 1017.7 1017.6 0.0
02/10:30am 28.5 25.9 13.2 39 9.0 SE 19 28 10 15 1018.2 1018.1 0.0
02/10:00am 26.9 23.9 11.8 39 8.7 ESE 19 28 10 15 1018.5 1018.4 0.0
02/09:30am 27.5 24.3 11.1 36 9.3 SE 19 30 10 16 1018.6 1018.5 0.0
02/09:00am 25.8 22.5 10.8 39 8.4 SE 19 26 10 14 1018.4 1018.3 0.0
02/08:30am 25.3 22.3 10.7 40 8.2 SE 17 20 9 11 1018.2 1018.1 0.0
02/08:00am 25.2 22.2 10.6 40 8.1 SE 17 20 9 11 1017.9 1017.8 0.0
02/07:30am 25.0 22.0 10.8 41 7.9 SE 17 22 9 12 1017.4 1017.3 0.0
02/07:00am 25.0 22.0 10.8 41 7.9 SE 17 22 9 12 1017.2 1017.1 0.0
02/06:30am 23.6 22.9 12.0 48 6.6 SSE 7 17 4 9 1017.0 1016.9 0.0
02/06:00am 23.8 22.6 11.5 46 6.9 S 9 15 5 8 1016.8 1016.7 0.0
02/05:30am 24.9 22.3 10.7 40 7.9 SSE 15 20 8 11 1016.8 1016.7 0.0
02/05:00am 25.4 22.4 10.8 40 8.2 SE 17 20 9 11 1016.6 1016.5 0.0
02/04:30am 25.6 22.2 10.6 39 8.4 SE 19 24 10 13 1016.4 1016.3 0.0
02/04:00am 26.1 22.9 11.1 39 8.5 SE 19 28 10 15 1016.4 1016.3 0.0
02/03:30am 25.7 24.1 12.9 45 7.4 SSE 13 20 7 11 1016.5 1016.4 0.0
02/03:00am 22.3 21.5 12.8 55 5.4 SSE 9 13 5 7 1016.6 1016.5 0.0
02/02:30am 21.5 21.3 12.9 58 4.9 S 6 7 3 4 1016.7 1016.6 0.0
02/02:00am 21.2 20.4 12.9 59 4.7 SSE 9 11 5 6 1016.8 1016.7 0.0
02/01:30am 20.9 20.0 12.6 59 4.7 SSE 9 11 5 6 1016.9 1016.8 0.0
02/01:00am 21.2 20.3 12.6 58 4.9 SE 9 11 5 6 1016.9 1016.8 0.0
02/12:30am 22.9 21.8 11.9 50 6.2 SE 9 11 5 6 1016.9 1016.8 0.0
02/12:00am 22.5 21.5 12.4 52 5.7 SE 9 13 5 7 1017.0 1016.9 0.0
 
Date/Time
CST
Temp
°C
App
Temp
°C
Dew
Point
Rel
Hum
%
Delta-T
°C
Wind Press
QNH
hPa
Press
MSL
hPa
Rain
since 9 am
mm
Dir
 
Spd
km/h
Gust
km/h
Spd
kts
Gust
kts
01/11:30pm 23.4 22.5 12.7 51 6.1 SSE 9 13 5 7 1017.0 1016.9 0.0
01/11:00pm 23.2 22.7 12.5 51 6.1 SSE 7 7 4 4 1017.1 1017.0 0.0
01/10:30pm 24.0 23.7 13.2 50 6.3 SSE 7 11 4 6 1017.1 1017.0 0.0
01/10:00pm 24.5 23.6 12.5 47 6.9 SSE 9 9 5 5 1016.8 1016.7 0.0
01/09:30pm 25.7 24.8 12.5 44 7.6 SSE 9 13 5 7 1016.6 1016.5 0.0
01/09:00pm 26.3 25.2 12.0 41 8.2 SSE 9 13 5 7 1016.3 1016.2 0.0
01/08:30pm 27.4 25.4 11.4 37 9.1 SSE 13 19 7 10 1015.9 1015.8 0.0
01/08:00pm 27.4 25.9 11.8 38 9.0 SSE 11 15 6 8 1015.4 1015.3 0.0
01/07:30pm 27.1 26.4 12.0 39 8.7 SSE 7 11 4 6 1015.1 1015.0 0.0
01/07:00pm 27.7 26.5 11.7 37 9.2 S 9 13 5 7 1014.8 1014.7 0.0
01/06:30pm 28.6 27.5 12.1 36 9.6 SSW 9 15 5 8 1014.6 1014.5 0.0
01/06:00pm 30.0 29.0 12.4 34 10.3 SW 9 13 5 7 1014.4 1014.3 0.0
01/05:30pm 30.8 30.2 12.2 32 10.9 WSW 7 15 4 8 1014.3 1014.2 0.0
01/05:00pm 32.8 32.3 10.8 26 12.8 ESE 4 7 2 4 1014.1 1014.0 0.0
01/04:30pm 32.1 30.8 11.3 28 12.1 ESE 9 17 5 9 1014.2 1014.1 0.0
01/04:00pm 31.5 29.8 11.3 29 11.7 ESE 11 17 6 9 1014.2 1014.1 0.0
01/03:30pm 31.6 30.2 10.9 28 12.0 ESE 9 15 5 8 1014.2 1014.1 0.0
01/03:00pm 31.6 29.1 10.9 28 12.0 E 15 24 8 13 1014.6 1014.5 0.0
01/02:30pm 31.9 29.0 11.1 28 12.1 E 17 28 9 15 1015.1 1015.0 0.0
01/02:00pm 31.5 29.2 11.8 30 11.5 NE 15 26 8 14 1015.7 1015.6 0.0
01/01:30pm 31.5 29.0 12.3 31 11.3 E 17 24 9 13 1016.3 1016.2 0.0
01/01:00pm 30.8 27.5 12.7 33 10.7 ESE 22 30 12 16 1016.8 1016.7 0.0
01/12:30pm 30.9 28.0 12.8 33 10.7 ESE 20 32 11 17 1017.4 1017.3 0.0
01/12:00pm 30.5 27.6 12.9 34 10.4 E 20 30 11 16 1018.0 1017.9 0.0
01/11:30am 29.7 26.8 12.2 34 10.2 E 19 35 10 19 1018.4 1018.3 0.0
01/11:00am 29.0 26.1 12.4 36 9.7 ESE 19 26 10 14 1018.7 1018.6 0.0
01/10:30am 28.4 25.3 12.3 37 9.4 ESE 20 33 11 18 1018.9 1018.8 0.0
01/10:00am 27.2 23.8 11.2 36 9.1 ESE 20 28 11 15 1019.1 1019.0 0.0
01/09:30am 26.3 23.6 10.5 37 8.8 SE 15 22 8 12 1019.0 1018.9 0.0
01/09:00am 24.8 21.8 9.1 37 8.5 SE 15 22 8 12 1018.7 1018.6 0.0
01/08:30am 24.3 21.4 8.3 36 8.5 ESE 13 17 7 9 1018.4 1018.3 0.0
01/08:00am 23.7 20.7 7.8 36 8.4 SE 13 20 7 11 1018.1 1018.0 0.0
01/07:30am 23.4 20.0 7.5 36 8.3 SE 15 20 8 11 1017.8 1017.7 0.0
01/07:00am 23.0 19.9 7.1 36 8.2 SE 13 17 7 9 1017.4 1017.3 0.0
01/06:30am 23.1 19.8 6.4 34 8.5 SE 13 19 7 10 1017.2 1017.1 0.0
01/06:00am 23.5 20.6 6.3 33 8.8 SE 11 15 6 8 1017.2 1017.1 0.0
01/05:30am 23.9 19.8 6.2 32 9.1 SE 17 20 9 11 1017.2 1017.1 0.0
01/05:00am 21.7 19.3 7.2 39 7.5 SSE 9 13 5 7 1016.9 1016.8 0.0
01/04:30am 21.7 19.3 6.8 38 7.6 S 9 13 5 7 1016.7 1016.6 0.0
01/04:00am 22.5 19.8 7.5 38 7.8 SSE 11 15 6 8 1016.8 1016.7 0.0
01/03:30am 20.3 18.4 8.9 48 6.0 S 9 13 5 7 1016.7 1016.6 0.0
01/03:00am 18.6 16.9 9.7 56 4.7 S 9 13 5 7 1016.8 1016.7 0.0
01/02:30am 18.3 18.2 9.6 57 4.6 CALM 0 0 0 0 1016.8 1016.7 0.0
01/02:00am 19.1 19.0 9.6 54 5.0 CALM 0 0 0 0 1016.8 1016.7 0.0
01/01:30am 21.4 19.3 8.3 43 6.9 SSE 9 13 5 7 1016.8 1016.7 0.0
01/01:00am 20.6 18.7 9.2 48 6.1 S 9 13 5 7 1016.7 1016.6 0.0
01/12:30am 20.7 18.9 9.6 49 5.9 S 9 13 5 7 1016.8 1016.7 0.0
01/12:00am 18.4 17.5 10.7 61 4.1 S 6 9 3 5 1016.9 1016.8 0.0
 
Date/Time
CST
Temp
°C
App
Temp
°C
Dew
Point
Rel
Hum
%
Delta-T
°C
Wind Press
QNH
hPa
Press
MSL
hPa
Rain
since 9 am
mm
Dir
 
Spd
km/h
Gust
km/h
Spd
kts
Gust
kts
30/11:30pm 17.3 16.2 10.7 65 3.5 S 7 11 4 6 1017.0 1016.9 0.0
30/11:00pm 17.6 16.7 10.5 63 3.8 S 6 7 3 4 1017.1 1017.0 0.0
30/10:30pm 18.6 18.8 10.7 60 4.3 CALM 0 2 0 1 1017.1 1017.0 0.0
30/10:00pm 18.4 17.2 10.3 59 4.3 SSW 7 9 4 5 1017.0 1016.9 0.0
30/09:30pm 19.3 19.4 10.0 55 5.0 CALM 0 6 0 3 1016.8 1016.7 0.0
30/09:00pm 20.4 20.4 9.9 51 5.6 CALM 0 0 0 0 1016.5 1016.4 0.0
30/08:30pm 21.6 21.5 9.5 46 6.5 CALM 0 0 0 0 1016.1 1016.0 0.0
30/08:00pm 22.7 22.1 8.8 41 7.4 S 2 7 1 4 1015.5 1015.4 0.0
30/07:30pm 24.0 23.0 8.8 38 8.2 SSW 4 7 2 4 1015.2 1015.1 0.0
30/07:00pm 25.3 23.6 8.3 34 9.1 WSW 7 7 4 4 1014.8 1014.7 0.0
30/06:30pm 28.2 26.6 6.3 25 11.5 ESE 4 9 2 5 1014.5 1014.4 0.0
30/06:00pm 30.2 27.1 5.5 21 13.0 SE 11 17 6 9 1014.1 1014.0 0.0
30/05:30pm 31.2 27.7 5.6 20 13.6 ESE 13 15 7 8 1013.9 1013.8 0.0
30/05:00pm 31.7 27.8 5.3 19 14.0 ESE 15 24 8 13 1013.8 1013.7 0.0
30/04:30pm 32.1 28.3 5.6 19 14.1 E 15 22 8 12 1013.7 1013.6 0.0
30/04:00pm 31.9 27.5 4.6 18 14.3 E 17 26 9 14 1013.9 1013.8 0.0
30/03:30pm 31.9 28.0 5.4 19 14.0 ESE 15 24 8 13 1014.0 1013.9 0.0
30/03:00pm 31.9 28.4 5.4 19 14.0 E 13 24 7 13 1014.2 1014.1 0.0
30/02:30pm 32.0 28.5 5.5 19 14.1 SE 13 20 7 11 1014.6 1014.5 0.0
30/02:00pm 31.9 28.6 6.2 20 13.8 E 13 24 7 13 1015.1 1015.0 0.0
30/01:30pm 31.7 27.7 6.7 21 13.5 ESE 17 30 9 16 1015.6 1015.5 0.0
30/01:00pm 30.9 26.8 6.0 21 13.3 SE 17 35 9 19 1016.1 1016.0 0.0
30/12:30pm 30.8 26.7 6.0 21 13.2 E 17 30 9 16 1016.7 1016.6 0.0
30/12:00pm 30.4 26.5 7.0 23 12.6 SSE 17 24 9 13 1017.1 1017.0 0.0
30/11:30am 29.4 25.9 7.3 25 11.9 SE 15 20 8 11 1017.6 1017.5 0.0
30/11:00am 29.1 25.2 7.1 25 11.8 SE 17 24 9 13 1017.9 1017.8 0.0
30/10:30am 28.2 24.1 8.0 28 10.9 SE 19 24 10 13 1018.2 1018.1 0.0
30/10:00am 27.0 23.3 8.0 30 10.2 SE 17 22 9 12 1018.4 1018.3 0.0
30/09:30am 25.4 21.7 8.0 33 9.3 SE 17 26 9 14 1018.3 1018.2 0.0
30/09:00am 24.4 21.5 8.0 35 8.7 SE 13 17 7 9 1018.1 1018.0 0.0
30/08:30am 23.3 19.9 7.8 37 8.1 SE 15 17 8 9 1018.0 1017.9 0.0
30/08:00am 20.3 18.3 10.1 52 5.5 SSE 11 15 6 8 1017.5 1017.4 0.0
30/07:30am 15.5 14.4 10.7 73 2.5 SSE 7 9 4 5 1017.1 1017.0 0.0
30/07:00am 16.0 14.8 10.3 69 3.0 SSE 7 9 4 5 1016.8 1016.7 0.0
30/06:30am 15.9 14.6 11.3 74 2.5 S 9 11 5 6 1016.5 1016.4 0.0
30/06:00am 14.2 13.5 11.5 84 1.4 S 6 7 3 4 1016.3 1016.2 0.0
30/05:30am 14.1 13.8 11.6 85 1.3 S 4 7 2 4 1016.1 1016.0 0.0
30/05:00am 14.8 14.4 12.5 86 1.3 SSE 6 7 3 4 1016.1 1016.0 0.0
30/04:30am 14.0 13.2 11.7 86 1.2 SW 7 9 4 5 1016.3 1016.2 0.0
30/04:00am 14.2 13.7 11.9 86 1.2 SW 6 7 3 4 1016.3 1016.2 0.0
30/03:30am 14.3 13.8 12.0 86 1.2 SSW 6 7 3 4 1016.3 1016.2 0.0
30/03:00am 14.5 14.1 12.4 87 1.1 SSW 6 9 3 5 1016.4 1016.3 0.0
30/02:30am 14.6 15.3 12.3 86 1.3 CALM 0 0 0 0 1016.6 1016.5 0.0
30/02:00am 14.7 15.4 12.2 85 1.4 CALM 0 0 0 0 1016.7 1016.6 0.0
30/01:30am 15.1 15.9 12.4 84 1.5 CALM 0 0 0 0 1016.9 1016.8 0.0
30/01:00am 15.6 16.6 13.1 85 1.4 CALM 0 0 0 0 1017.0 1016.9 0.0
30/12:30am 15.7 16.6 12.8 83 1.6 CALM 0 0 0 0 1016.8 1016.7 0.0
30/12:00am 15.8 16.6 12.7 82 1.7 CALM 0 0 0 0 1016.9 1016.8 0.0
 
Date/Time
CST
Temp
°C
App
Temp
°C
Dew
Point
Rel
Hum
%
Delta-T
°C
Wind Press
QNH
hPa
Press
MSL
hPa
Rain
since 9 am
mm
Dir
 
Spd
km/h
Gust
km/h
Spd
kts
Gust
kts
29/11:30pm 16.3 17.1 12.7 79 2.0 CALM 0 0 0 0 1016.9 1016.8 0.0
29/11:00pm 16.7 17.6 12.8 78 2.2 CALM 0 0 0 0 1016.9 1016.8 0.0
29/10:30pm 17.6 18.5 12.9 74 2.6 CALM 0 0 0 0 1016.9 1016.8 0.0
29/10:00pm 18.8 19.5 13.4 71 3.1 E 2 6 1 3 1016.8 1016.7 0.0
29/09:30pm 18.6 19.1 12.8 69 3.3 S 2 6 1 3 1016.6 1016.5 0.0
29/09:00pm 19.0 20.1 13.4 70 3.2 CALM 0 0 0 0 1016.5 1016.4 0.0
29/08:30pm 19.7 20.8 13.6 68 3.5 CALM 0 0 0 0 1016.3 1016.2 0.0
29/08:00pm 20.9 22.2 14.1 65 4.0 CALM 0 0 0 0 1016.1 1016.0 0.0
29/07:30pm 22.1 22.6 14.0 60 4.7 SW 4 6 2 3 1015.7 1015.6 0.0
29/07:00pm 23.6 23.8 14.3 56 5.5 SW 6 9 3 5 1015.5 1015.4 0.0
29/06:30pm 25.0 24.5 12.6 46 7.1 SW 7 11 4 6 1015.2 1015.1 0.0
29/06:00pm 26.8 25.4 10.9 37 9.0 W 9 17 5 9 1014.9 1014.8 0.0
29/05:30pm 27.6 25.0 9.4 32 10.1 W 13 20 7 11 1014.6 1014.5 0.0
29/05:00pm 28.6 26.2 8.8 29 10.9 W 11 19 6 10 1014.5 1014.4 0.0
29/04:30pm 28.6 25.6 9.3 30 10.7 W 15 24 8 13 1014.3 1014.2 0.0
29/04:00pm 29.5 27.2 10.6 31 10.8 W 13 22 7 12 1014.3 1014.2 0.0
29/03:30pm 29.1 26.6 11.2 33 10.3 W 15 24 8 13 1014.4 1014.3 0.0
29/03:00pm 30.5 28.4 5.7 21 13.1 SE 6 11 3 6 1014.6 1014.5 0.0
29/02:30pm 30.6 27.3 6.5 22 12.9 E 13 19 7 10 1015.1 1015.0 0.0
29/02:00pm 30.3 27.6 7.5 24 12.4 SE 11 17 6 9 1015.5 1015.4 0.0
29/01:30pm 30.2 27.3 8.0 25 12.2 ENE 13 24 7 13 1016.0 1015.9 0.0

Other Formats:

Comma delimited format used in spreadsheet applications
http://www.bom.gov.au/fwo/IDD60801/IDD60801.95111.axf

JavaScript Object Notation format (JSON) in row-major order
http://www.bom.gov.au/fwo/IDD60801/IDD60801.95111.json